createdAt,value
2022-12-22T00:02:44.784Z,16.50
2022-12-22T00:05:42.229Z,16.35
2022-12-22T00:08:28.218Z,15.30
2022-12-22T00:11:15.087Z,15.75
2022-12-22T00:14:03.420Z,17.85
2022-12-22T00:16:51.896Z,15.07
2022-12-22T00:19:37.240Z,18.67
2022-12-22T00:22:32.291Z,16.15
2022-12-22T00:25:17.487Z,13.60
2022-12-22T00:28:02.411Z,17.50
2022-12-22T00:30:47.649Z,17.20
2022-12-22T00:33:35.787Z,14.38
2022-12-22T00:36:22.627Z,15.43
2022-12-22T00:39:07.459Z,13.48
2022-12-22T00:41:52.250Z,14.52
2022-12-22T00:44:37.121Z,14.10
2022-12-22T00:47:22.501Z,13.60
2022-12-22T00:50:08.514Z,15.10
2022-12-22T00:52:54.263Z,12.73
2022-12-22T00:55:45.445Z,11.35
2022-12-22T00:58:34.815Z,12.70
2022-12-22T01:01:19.887Z,14.30
2022-12-22T01:04:05.128Z,17.95
2022-12-22T01:06:53.037Z,14.63
2022-12-22T01:09:39.605Z,15.82
2022-12-22T01:12:42.077Z,13.10
2022-12-22T01:15:37.169Z,13.10
2022-12-22T01:18:23.359Z,12.93
2022-12-22T01:21:09.210Z,13.07
2022-12-22T01:23:54.382Z,16.23
2022-12-22T01:26:39.789Z,17.10
2022-12-22T01:29:24.361Z,14.70
2022-12-22T01:32:09.347Z,18.17
2022-12-22T01:34:55.101Z,18.80
2022-12-22T01:37:40.017Z,15.68
2022-12-22T01:40:37.170Z,13.67
2022-12-22T01:43:44.869Z,15.32
2022-12-22T01:46:41.950Z,15.00
2022-12-22T01:49:52.847Z,17.60
2022-12-22T01:52:41.163Z,16.75
2022-12-22T01:55:30.775Z,17.70
2022-12-22T01:58:16.004Z,15.30
2022-12-22T02:01:01.250Z,16.35
2022-12-22T02:03:45.956Z,15.18
2022-12-22T02:06:39.077Z,17.45
2022-12-22T02:09:54.895Z,16.90
2022-12-22T02:12:45.917Z,13.65
2022-12-22T02:15:52.671Z,13.52
2022-12-22T02:18:47.066Z,17.52
2022-12-22T02:21:40.876Z,14.80
2022-12-22T02:24:58.301Z,13.17
2022-12-22T02:27:45.028Z,11.70
2022-12-22T02:30:31.387Z,16.45
2022-12-22T02:33:16.952Z,22.40
2022-12-22T02:36:07.861Z,16.10
2022-12-22T02:38:58.709Z,12.33
2022-12-22T02:41:52.646Z,14.10
2022-12-22T02:44:46.190Z,14.05
2022-12-22T02:47:58.348Z,15.50
2022-12-22T02:50:48.689Z,9.60
2022-12-22T02:53:36.644Z,12.10
2022-12-22T02:56:26.219Z,13.25
2022-12-22T02:59:11.442Z,15.32
2022-12-22T03:01:58.896Z,11.48
2022-12-22T03:04:44.045Z,14.25
2022-12-22T03:07:28.820Z,13.73
2022-12-22T03:10:13.739Z,16.35
2022-12-22T03:12:58.463Z,11.52
2022-12-22T03:15:43.323Z,12.95
2022-12-22T03:18:29.886Z,18.60
2022-12-22T03:21:15.788Z,17.30
2022-12-22T03:24:01.142Z,17.42
2022-12-22T03:26:29.001Z,13.73
2022-12-22T03:28:55.677Z,21.67
2022-12-22T03:31:22.154Z,16.20
2022-12-22T03:33:48.576Z,24.10
2022-12-22T03:36:15.014Z,19.08
2022-12-22T03:38:41.411Z,16.65
2022-12-22T03:41:07.884Z,16.05
2022-12-22T03:43:52.788Z,19.40
2022-12-22T03:46:31.143Z,20.73
2022-12-22T03:49:11.504Z,19.40
2022-12-22T03:51:39.341Z,18.05
2022-12-22T03:54:05.905Z,23.60
2022-12-22T03:56:32.255Z,26.13
2022-12-22T03:58:58.800Z,27.27
2022-12-22T04:01:25.336Z,26.30
2022-12-22T04:03:51.899Z,22.88
2022-12-22T04:06:18.983Z,24.90
2022-12-22T04:08:45.699Z,30.30
2022-12-22T04:11:32.072Z,28.20
2022-12-22T04:13:58.586Z,39.47
2022-12-22T04:16:25.090Z,28.23
2022-12-22T04:18:51.652Z,71.88
2022-12-22T04:21:18.114Z,45.65
2022-12-22T04:23:44.492Z,52.77
2022-12-22T04:26:10.893Z,49.05
2022-12-22T04:28:37.335Z,50.92
2022-12-22T04:31:03.776Z,34.00
2022-12-22T04:33:30.164Z,74.95
2022-12-22T04:35:56.649Z,64.10
2022-12-22T04:38:22.974Z,56.22
2022-12-22T04:40:49.425Z,105.90
2022-12-22T04:43:15.805Z,79.20
2022-12-22T04:45:44.226Z,44.30
2022-12-22T04:48:10.749Z,53.10
2022-12-22T04:50:37.120Z,64.82
2022-12-22T04:53:03.565Z,50.08
2022-12-22T04:55:29.953Z,65.88
2022-12-22T04:57:56.296Z,44.55
2022-12-22T05:00:22.750Z,43.20
2022-12-22T05:02:49.435Z,57.53
2022-12-22T05:05:15.930Z,45.20
2022-12-22T05:07:43.260Z,56.05
2022-12-22T05:10:10.798Z,30.73
2022-12-22T05:12:55.157Z,30.23
2022-12-22T05:15:26.558Z,34.03
2022-12-22T05:17:53.483Z,35.78
2022-12-22T05:20:20.496Z,34.08
2022-12-22T05:22:47.028Z,42.42
2022-12-22T05:25:16.585Z,34.93
2022-12-22T05:27:44.371Z,29.35
2022-12-22T05:30:11.592Z,35.53
2022-12-22T05:32:38.884Z,27.65
2022-12-22T05:35:05.866Z,33.65
2022-12-22T05:37:32.470Z,37.13
2022-12-22T05:39:58.890Z,49.63
2022-12-22T05:42:37.615Z,28.67
2022-12-22T05:45:16.176Z,31.95
2022-12-22T05:47:46.870Z,35.15
2022-12-22T05:50:16.846Z,28.30
2022-12-22T05:52:43.568Z,26.23
2022-12-22T05:55:10.948Z,24.58
2022-12-22T05:57:37.381Z,23.38
2022-12-22T06:00:09.407Z,22.33
2022-12-22T06:02:35.940Z,27.03
2022-12-22T06:05:02.516Z,19.35
2022-12-22T06:07:28.872Z,17.33
2022-12-22T06:09:55.243Z,17.50
2022-12-22T06:12:21.660Z,15.07
2022-12-22T06:14:48.008Z,20.17
2022-12-22T06:17:14.441Z,21.88
2022-12-22T06:19:40.821Z,22.95
2022-12-22T06:22:07.373Z,19.50
2022-12-22T06:24:33.824Z,24.50
2022-12-22T06:27:00.781Z,18.97
2022-12-22T06:29:27.264Z,19.92
2022-12-22T06:31:53.676Z,21.33
2022-12-22T06:34:20.104Z,17.23
2022-12-22T06:36:47.498Z,21.73
2022-12-22T06:39:15.093Z,30.37
2022-12-22T06:42:00.216Z,28.00
2022-12-22T06:44:26.980Z,25.17
2022-12-22T06:46:53.590Z,29.50
2022-12-22T06:49:20.997Z,21.33
2022-12-22T06:51:47.458Z,36.37
2022-12-22T06:54:14.114Z,31.23
2022-12-22T06:56:40.535Z,34.00
2022-12-22T06:59:07.079Z,32.20
2022-12-22T07:01:33.502Z,33.25
2022-12-22T07:04:00.129Z,43.67
2022-12-22T07:06:26.630Z,38.03
2022-12-22T07:08:53.011Z,31.30
2022-12-22T07:11:19.407Z,30.65
2022-12-22T07:13:46.195Z,36.47
2022-12-22T07:16:12.724Z,40.13
2022-12-22T07:18:41.545Z,38.65
2022-12-22T07:21:11.188Z,35.15
2022-12-22T07:23:38.857Z,36.75
2022-12-22T07:26:06.649Z,33.30
2022-12-22T07:28:38.023Z,38.30
2022-12-22T07:31:04.977Z,26.40
2022-12-22T07:33:32.175Z,29.75
2022-12-22T07:36:07.863Z,35.03
2022-12-22T07:38:42.585Z,40.03
2022-12-22T07:41:29.295Z,39.03
2022-12-22T07:43:57.698Z,42.47
2022-12-22T07:46:26.568Z,33.20
2022-12-22T07:49:12.228Z,35.40
2022-12-22T07:51:40.929Z,42.58
2022-12-22T07:54:09.330Z,32.07
2022-12-22T07:56:35.745Z,29.77
2022-12-22T07:59:02.216Z,29.92
2022-12-22T08:01:28.675Z,28.33
2022-12-22T08:03:55.309Z,31.73
2022-12-22T08:06:21.660Z,30.27
2022-12-22T08:08:48.219Z,34.67
2022-12-22T08:11:14.662Z,21.35
2022-12-22T08:13:41.984Z,27.90
2022-12-22T08:16:11.075Z,19.50
2022-12-22T08:18:39.050Z,31.90
2022-12-22T08:21:07.096Z,27.75
2022-12-22T08:23:33.983Z,26.17
2022-12-22T08:26:08.996Z,25.90
2022-12-22T08:28:57.899Z,16.65
2022-12-22T08:31:27.021Z,23.30
2022-12-22T08:33:55.345Z,19.55
2022-12-22T08:36:22.017Z,19.60
2022-12-22T08:38:48.562Z,17.40
2022-12-22T08:41:37.075Z,19.35
2022-12-22T08:44:03.489Z,23.17
2022-12-22T08:46:29.882Z,17.35
2022-12-22T08:48:56.298Z,22.38
2022-12-22T08:51:22.663Z,15.82
2022-12-22T08:54:05.905Z,18.33
2022-12-22T08:56:32.868Z,14.83
2022-12-22T08:58:59.436Z,20.10
2022-12-22T09:01:25.960Z,17.33
2022-12-22T09:03:53.941Z,24.88
2022-12-22T09:06:27.035Z,25.75
2022-12-22T09:08:58.811Z,29.07
2022-12-22T09:11:25.769Z,22.95
2022-12-22T09:13:54.545Z,21.77
2022-12-22T09:16:22.730Z,17.23
2022-12-22T09:18:49.264Z,20.98
2022-12-22T09:21:16.088Z,21.40
2022-12-22T09:23:42.441Z,16.40
2022-12-22T09:26:11.154Z,14.20
2022-12-22T09:28:37.999Z,18.85
2022-12-22T09:31:05.176Z,16.92
2022-12-22T09:33:32.412Z,19.63
2022-12-22T09:35:59.280Z,11.60
2022-12-22T09:38:29.128Z,23.80
2022-12-22T09:40:58.917Z,11.15
2022-12-22T09:43:29.978Z,10.10
2022-12-22T09:45:58.522Z,13.53
2022-12-22T09:48:33.934Z,20.30
2022-12-22T09:51:02.014Z,16.60
2022-12-22T09:53:28.480Z,15.68
2022-12-22T09:55:55.068Z,6.00
2022-12-22T09:58:28.969Z,15.90
2022-12-22T10:01:05.576Z,13.35
2022-12-22T10:03:41.617Z,15.38
2022-12-22T10:06:17.294Z,13.25
2022-12-22T10:08:43.844Z,9.45
2022-12-22T10:11:18.635Z,9.87
2022-12-22T10:13:45.781Z,9.70
2022-12-22T10:16:29.032Z,7.78
2022-12-22T10:19:20.976Z,14.82
2022-12-22T10:21:48.269Z,12.13
2022-12-22T10:24:29.439Z,9.97
2022-12-22T10:27:00.823Z,10.18
2022-12-22T10:29:28.554Z,7.40
2022-12-22T10:32:12.148Z,8.48
2022-12-22T10:34:59.766Z,5.20
2022-12-22T10:37:40.152Z,9.00
2022-12-22T10:40:22.541Z,6.53
2022-12-22T10:42:55.511Z,11.70
2022-12-22T10:45:25.784Z,6.68
2022-12-22T10:47:56.771Z,7.10
2022-12-22T10:50:23.632Z,8.57
2022-12-22T10:52:56.709Z,7.13
2022-12-22T10:55:29.289Z,8.93
2022-12-22T10:58:10.994Z,6.35
2022-12-22T11:00:38.576Z,5.75
2022-12-22T11:03:07.078Z,5.50
2022-12-22T11:05:33.953Z,9.00
2022-12-22T11:08:13.290Z,5.35
2022-12-22T11:10:53.097Z,6.20
2022-12-22T11:13:37.595Z,4.82
2022-12-22T11:16:19.606Z,8.10
2022-12-22T11:19:11.313Z,5.78
2022-12-22T11:21:51.754Z,5.30
2022-12-22T11:24:51.165Z,6.50
2022-12-22T11:27:20.562Z,10.32
2022-12-22T11:30:13.952Z,6.20
2022-12-22T11:32:57.313Z,8.80
2022-12-22T11:35:45.627Z,6.90
2022-12-22T11:38:28.900Z,9.98
2022-12-22T11:41:07.757Z,4.70
2022-12-22T11:44:11.349Z,8.03
2022-12-22T11:46:58.708Z,9.35
2022-12-22T11:49:52.318Z,6.57
2022-12-22T11:52:29.219Z,7.40
2022-12-22T11:55:10.712Z,12.52
2022-12-22T11:57:49.393Z,6.97
2022-12-22T12:00:18.917Z,5.70
2022-12-22T12:03:23.109Z,6.47
2022-12-22T12:06:14.095Z,10.02
2022-12-22T12:08:55.113Z,5.15
2022-12-22T12:11:39.157Z,6.30
2022-12-22T12:14:28.733Z,4.45
2022-12-22T12:17:00.361Z,3.95
2022-12-22T12:19:45.693Z,6.53
2022-12-22T12:22:43.121Z,6.22
2022-12-22T12:25:28.476Z,4.10
2022-12-22T12:28:10.150Z,6.15
2022-12-22T12:30:47.822Z,6.32
2022-12-22T12:33:38.469Z,10.15
2022-12-22T12:36:20.090Z,7.32
2022-12-22T12:39:09.884Z,8.07
2022-12-22T12:41:54.167Z,12.82
2022-12-22T12:44:25.092Z,7.00
2022-12-22T12:46:51.568Z,10.00
2022-12-22T12:49:36.422Z,10.80
2022-12-22T12:52:07.493Z,10.97
2022-12-22T12:54:37.773Z,22.90
2022-12-22T12:57:07.199Z,12.82
2022-12-22T12:59:42.705Z,18.50
2022-12-22T13:02:27.993Z,14.30
2022-12-22T13:05:12.713Z,13.70
2022-12-22T13:08:11.940Z,17.08
2022-12-22T13:10:45.392Z,17.63
2022-12-22T13:13:35.705Z,11.40
2022-12-22T13:16:02.271Z,17.38
2022-12-22T13:18:28.651Z,14.83
2022-12-22T13:21:51.810Z,16.60
2022-12-22T13:24:24.734Z,19.13
2022-12-22T13:26:55.198Z,17.40
2022-12-22T13:29:21.638Z,17.75
2022-12-22T13:31:52.334Z,11.90
2022-12-22T13:34:34.459Z,20.63
2022-12-22T13:37:07.120Z,9.90
2022-12-22T13:39:33.503Z,12.35
2022-12-22T13:42:00.037Z,22.80
2022-12-22T13:44:32.920Z,10.85
2022-12-22T13:47:12.542Z,15.48
2022-12-22T13:50:07.607Z,20.77
2022-12-22T13:52:28.127Z,24.17
2022-12-22T13:54:54.655Z,22.30
2022-12-22T13:57:23.182Z,18.33
2022-12-22T13:59:51.527Z,17.77
2022-12-22T14:02:20.629Z,19.02
2022-12-22T14:05:07.913Z,23.50
2022-12-22T14:07:34.286Z,16.52
2022-12-22T14:10:00.951Z,16.60
2022-12-22T14:12:36.192Z,19.33
2022-12-22T14:15:03.580Z,22.63
2022-12-22T14:17:33.840Z,21.55
2022-12-22T14:20:03.278Z,20.05
2022-12-22T14:22:54.835Z,22.87
2022-12-22T14:25:40.113Z,19.95
2022-12-22T14:28:40.186Z,22.63
2022-12-22T14:31:07.557Z,21.73
2022-12-22T14:33:34.789Z,21.30
2022-12-22T14:36:23.681Z,23.57
2022-12-22T14:38:55.354Z,22.63
2022-12-22T14:41:43.928Z,22.80
2022-12-22T14:44:22.041Z,20.48
2022-12-22T14:47:14.858Z,19.30
2022-12-22T14:49:49.152Z,16.13
2022-12-22T14:52:21.205Z,25.00
2022-12-22T14:54:50.379Z,21.38
2022-12-22T14:57:28.194Z,21.63
2022-12-22T15:00:05.402Z,21.65
2022-12-22T15:02:40.080Z,23.80
2022-12-22T15:05:08.272Z,21.20
2022-12-22T15:08:08.030Z,20.38
2022-12-22T15:10:39.940Z,20.85
2022-12-22T15:13:11.941Z,20.45
2022-12-22T15:15:38.494Z,25.60
2022-12-22T15:18:05.059Z,21.95
2022-12-22T15:20:38.748Z,28.00
2022-12-22T15:23:13.075Z,22.52
2022-12-22T15:25:39.611Z,19.95
2022-12-22T15:28:05.990Z,20.57
2022-12-22T15:30:32.461Z,22.33
2022-12-22T15:32:59.064Z,26.10
2022-12-22T15:35:30.254Z,29.38
2022-12-22T15:37:56.645Z,26.83
2022-12-22T15:40:24.403Z,28.40
2022-12-22T15:42:51.744Z,34.08
2022-12-22T15:45:20.088Z,29.27
2022-12-22T15:47:50.871Z,25.55
2022-12-22T15:50:33.541Z,25.65
2022-12-22T15:53:06.024Z,29.53
2022-12-22T15:55:34.229Z,30.83
2022-12-22T15:58:00.656Z,25.38
2022-12-22T16:00:27.035Z,30.30
2022-12-22T16:02:53.619Z,28.33
2022-12-22T16:05:20.133Z,33.33
2022-12-22T16:07:46.588Z,27.42
2022-12-22T16:10:26.659Z,29.38
2022-12-22T16:12:59.937Z,26.15
2022-12-22T16:15:34.262Z,34.25
2022-12-22T16:18:02.145Z,28.97
2022-12-22T16:20:37.284Z,29.85
2022-12-22T16:23:07.048Z,31.23
2022-12-22T16:25:36.063Z,28.38
2022-12-22T16:28:03.735Z,28.17
2022-12-22T16:30:33.089Z,30.53
2022-12-22T16:33:00.421Z,28.92
2022-12-22T16:35:29.298Z,25.35
2022-12-22T16:37:57.881Z,27.42
2022-12-22T16:40:25.320Z,25.30
2022-12-22T16:45:52.218Z,23.67
2022-12-22T16:48:24.600Z,29.17
2022-12-22T16:50:51.091Z,23.17
2022-12-22T16:53:17.539Z,26.67
2022-12-22T16:55:43.863Z,23.90
2022-12-22T16:58:14.260Z,21.55
2022-12-22T17:00:43.694Z,22.40
2022-12-22T17:03:14.448Z,22.10
2022-12-22T17:05:53.101Z,21.15
2022-12-22T17:08:24.593Z,22.43
2022-12-22T17:10:52.924Z,20.83
2022-12-22T17:13:20.736Z,16.23
2022-12-22T17:15:47.091Z,18.67
2022-12-22T17:18:18.975Z,20.08
2022-12-22T17:20:47.395Z,16.73
2022-12-22T17:23:28.999Z,16.33
2022-12-22T17:25:55.331Z,18.48
2022-12-22T17:28:21.850Z,17.08
2022-12-22T17:30:48.556Z,20.17
2022-12-22T17:33:16.361Z,16.37
2022-12-22T17:35:44.542Z,14.02
2022-12-22T17:38:22.111Z,17.10
2022-12-22T17:40:49.634Z,13.18
2022-12-22T17:43:17.777Z,14.25
2022-12-22T17:45:45.951Z,21.37
2022-12-22T17:48:14.138Z,16.00
2022-12-22T17:50:42.268Z,12.13
2022-12-22T17:53:19.776Z,15.02
2022-12-22T17:56:07.753Z,12.52
2022-12-22T17:58:34.061Z,13.77
2022-12-22T18:01:00.391Z,14.75
2022-12-22T18:03:26.942Z,14.20
2022-12-22T18:05:54.940Z,9.27
2022-12-22T18:08:21.482Z,12.10
2022-12-22T18:10:48.484Z,12.13
2022-12-22T18:13:26.731Z,12.70
2022-12-22T18:15:54.908Z,11.05
2022-12-22T18:18:21.360Z,13.07
2022-12-22T18:21:06.094Z,11.80
2022-12-22T18:23:33.743Z,8.80
2022-12-22T18:26:00.212Z,8.70
2022-12-22T18:28:26.546Z,10.30
2022-12-22T18:30:52.914Z,10.02
2022-12-22T18:33:19.323Z,11.93
2022-12-22T18:35:45.764Z,11.10
2022-12-22T18:38:28.129Z,9.68
2022-12-22T18:40:55.183Z,8.20
2022-12-22T18:43:21.629Z,8.18
2022-12-22T18:45:48.104Z,8.80
2022-12-22T18:48:14.646Z,8.47
2022-12-22T18:50:41.805Z,10.25
2022-12-22T18:53:24.497Z,7.90
2022-12-22T18:55:50.969Z,8.48
2022-12-22T18:58:17.539Z,8.38
2022-12-22T19:00:44.382Z,7.87
2022-12-22T19:03:26.408Z,9.25
2022-12-22T19:05:52.881Z,9.68
2022-12-22T19:08:24.720Z,7.95
2022-12-22T19:10:53.933Z,11.48
2022-12-22T19:13:29.977Z,7.63
2022-12-22T19:15:56.961Z,8.23
2022-12-22T19:18:27.230Z,9.05
2022-12-22T19:20:54.511Z,8.45
2022-12-22T19:23:22.946Z,7.75
2022-12-22T19:25:55.415Z,9.40
2022-12-22T19:28:27.172Z,9.50
2022-12-22T19:30:55.231Z,9.32
2022-12-22T19:33:42.894Z,9.15
2022-12-22T19:36:22.081Z,10.77
2022-12-22T19:38:51.043Z,11.30
2022-12-22T19:41:53.566Z,7.15
2022-12-22T19:44:26.308Z,11.82
2022-12-22T19:46:54.194Z,10.95
2022-12-22T19:49:23.511Z,9.60
2022-12-22T19:51:50.050Z,10.83
2022-12-22T19:54:19.589Z,10.38
2022-12-22T19:56:53.312Z,11.02
2022-12-22T19:59:39.181Z,12.00
2022-12-22T20:02:23.297Z,11.85
2022-12-22T20:04:50.249Z,13.10
2022-12-22T20:07:18.786Z,12.40
2022-12-22T20:09:45.344Z,17.42
2022-12-22T20:12:31.965Z,16.48
2022-12-22T20:17:51.128Z,17.27
2022-12-22T20:20:20.803Z,18.77
2022-12-22T20:22:50.624Z,14.70
2022-12-22T20:25:21.133Z,14.05
2022-12-22T20:27:49.053Z,18.67
2022-12-22T20:30:21.382Z,27.90
2022-12-22T20:32:48.603Z,12.05
2022-12-22T20:35:15.115Z,14.63
2022-12-22T20:37:41.933Z,15.70
2022-12-22T20:40:27.659Z,16.75
2022-12-22T20:42:54.508Z,12.23
2022-12-22T20:45:23.568Z,11.35
2022-12-22T20:47:50.829Z,15.27
2022-12-22T20:50:22.007Z,12.85
2022-12-22T20:52:50.007Z,12.05
2022-12-22T20:55:19.412Z,7.17
2022-12-22T20:57:48.191Z,10.23
2022-12-22T21:00:29.010Z,10.40
2022-12-22T21:02:55.500Z,6.80
2022-12-22T21:05:22.050Z,9.32
2022-12-22T21:07:49.408Z,5.50
2022-12-22T21:10:21.521Z,6.90
2022-12-22T21:12:48.729Z,8.98
2022-12-22T21:15:21.119Z,9.63
2022-12-22T21:17:51.518Z,10.60
2022-12-22T21:20:28.060Z,5.73
2022-12-22T21:22:54.471Z,4.25
2022-12-22T21:25:20.864Z,6.70
2022-12-22T21:27:50.006Z,6.25
2022-12-22T21:30:30.028Z,6.38
2022-12-22T21:32:56.681Z,6.63
2022-12-22T21:35:27.362Z,7.55
2022-12-22T21:37:54.996Z,6.72
2022-12-22T21:40:24.654Z,7.13
2022-12-22T21:42:52.444Z,4.75
2022-12-22T21:45:21.444Z,7.20
2022-12-22T21:47:47.868Z,5.10
2022-12-22T21:50:24.667Z,4.82
2022-12-22T21:52:52.520Z,2.85
2022-12-22T21:55:21.454Z,3.00
2022-12-22T21:57:48.235Z,3.77
2022-12-22T22:00:16.684Z,3.45
2022-12-22T22:02:43.694Z,3.38
2022-12-22T22:05:35.860Z,3.53
2022-12-22T22:08:04.476Z,3.47
2022-12-22T22:10:34.060Z,2.80
2022-12-22T22:13:01.740Z,4.75
2022-12-22T22:15:29.571Z,3.30
2022-12-22T22:17:58.674Z,3.90
2022-12-22T22:20:31.889Z,3.65
2022-12-22T22:22:59.635Z,2.93
2022-12-22T22:25:26.257Z,2.67
2022-12-22T22:27:52.874Z,1.85
2022-12-22T22:30:26.729Z,2.58
2022-12-22T22:32:54.786Z,3.28
2022-12-22T22:35:22.002Z,2.27
2022-12-22T22:37:51.680Z,2.20
2022-12-22T22:40:21.026Z,5.13
2022-12-22T22:42:47.701Z,3.58
2022-12-22T22:45:15.943Z,2.00
2022-12-22T22:47:42.463Z,3.53
2022-12-22T22:50:09.219Z,2.00
2022-12-22T22:52:36.734Z,6.65
2022-12-22T22:55:03.320Z,2.22
2022-12-22T22:57:29.685Z,2.40
2022-12-22T22:59:56.079Z,2.83
2022-12-22T23:02:22.737Z,3.20
2022-12-22T23:04:49.308Z,3.97
2022-12-22T23:07:15.755Z,3.97
2022-12-22T23:09:42.126Z,5.90
2022-12-22T23:12:08.563Z,2.73
2022-12-22T23:14:35.028Z,4.80
2022-12-22T23:17:01.376Z,3.00
2022-12-22T23:19:27.880Z,3.30
2022-12-22T23:21:54.336Z,2.90
2022-12-22T23:24:20.691Z,2.57
2022-12-22T23:26:47.953Z,6.82
2022-12-22T23:29:14.329Z,2.65
2022-12-22T23:31:40.849Z,8.63
2022-12-22T23:34:07.342Z,10.05
2022-12-22T23:36:33.747Z,14.10
2022-12-22T23:39:00.295Z,8.55
2022-12-22T23:41:26.842Z,10.02
2022-12-22T23:43:53.652Z,9.90
2022-12-22T23:46:20.135Z,10.88
2022-12-22T23:48:53.947Z,9.60
2022-12-22T23:51:21.970Z,5.43
2022-12-22T23:53:48.373Z,8.98
2022-12-22T23:56:15.671Z,7.63
2022-12-22T23:58:42.508Z,10.35
